sensor_id;sensor_type;location;lat;lon;timestamp;temperature;humidity
34095;DHT22;20372;47.080;15.410;2023-04-24T00:01:21;10.10;99.90
34095;DHT22;20372;47.080;15.410;2023-04-24T00:03:47;10.10;99.90
34095;DHT22;20372;47.080;15.410;2023-04-24T00:06:13;10.00;99.90
34095;DHT22;20372;47.080;15.410;2023-04-24T00:08:38;10.10;99.90
34095;DHT22;20372;47.080;15.410;2023-04-24T00:11:04;10.10;99.90
34095;DHT22;20372;47.080;15.410;2023-04-24T00:13:30;10.10;99.90
34095;DHT22;20372;47.080;15.410;2023-04-24T00:15:55;10.10;99.90
34095;DHT22;20372;47.080;15.410;2023-04-24T00:18:21;10.00;99.90
34095;DHT22;20372;47.080;15.410;2023-04-24T00:20:47;10.00;99.90
34095;DHT22;20372;47.080;15.410;2023-04-24T00:23:12;10.00;99.90
34095;DHT22;20372;47.080;15.410;2023-04-24T00:25:38;9.90;99.90
34095;DHT22;20372;47.080;15.410;2023-04-24T00:28:04;9.90;99.90
34095;DHT22;20372;47.080;15.410;2023-04-24T00:30:29;10.00;99.90
34095;DHT22;20372;47.080;15.410;2023-04-24T00:32:55;10.00;99.90
34095;DHT22;20372;47.080;15.410;2023-04-24T00:35:20;10.10;99.90
34095;DHT22;20372;47.080;15.410;2023-04-24T00:37:46;10.10;99.90
34095;DHT22;20372;47.080;15.410;2023-04-24T00:40:12;10.10;99.90
34095;DHT22;20372;47.080;15.410;2023-04-24T00:42:38;10.10;99.90
34095;DHT22;20372;47.080;15.410;2023-04-24T00:45:04;10.00;99.90
34095;DHT22;20372;47.080;15.410;2023-04-24T00:47:30;10.00;99.90
34095;DHT22;20372;47.080;15.410;2023-04-24T00:49:55;10.10;99.90
34095;DHT22;20372;47.080;15.410;2023-04-24T00:52:21;10.00;99.90
34095;DHT22;20372;47.080;15.410;2023-04-24T00:54:49;9.80;99.90
34095;DHT22;20372;47.080;15.410;2023-04-24T00:57:15;9.70;99.90
34095;DHT22;20372;47.080;15.410;2023-04-24T00:59:41;9.90;99.90
34095;DHT22;20372;47.080;15.410;2023-04-24T01:02:07;9.80;99.90
34095;DHT22;20372;47.080;15.410;2023-04-24T01:04:34;9.90;99.90
34095;DHT22;20372;47.080;15.410;2023-04-24T01:06:59;9.90;99.90
34095;DHT22;20372;47.080;15.410;2023-04-24T01:09:25;10.00;99.90
34095;DHT22;20372;47.080;15.410;2023-04-24T01:11:51;9.90;99.90
34095;DHT22;20372;47.080;15.410;2023-04-24T01:14:16;9.80;99.90
34095;DHT22;20372;47.080;15.410;2023-04-24T01:16:42;9.70;99.90
34095;DHT22;20372;47.080;15.410;2023-04-24T01:19:08;9.80;99.90
34095;DHT22;20372;47.080;15.410;2023-04-24T01:21:36;9.80;99.90
34095;DHT22;20372;47.080;15.410;2023-04-24T01:24:03;10.00;99.90
34095;DHT22;20372;47.080;15.410;2023-04-24T01:26:28;10.10;99.90
34095;DHT22;20372;47.080;15.410;2023-04-24T01:28:54;10.30;99.90
34095;DHT22;20372;47.080;15.410;2023-04-24T01:31:20;10.50;99.90
34095;DHT22;20372;47.080;15.410;2023-04-24T01:33:45;10.50;99.90
34095;DHT22;20372;47.080;15.410;2023-04-24T01:36:11;10.50;99.90
34095;DHT22;20372;47.080;15.410;2023-04-24T01:38:37;10.40;99.90
34095;DHT22;20372;47.080;15.410;2023-04-24T01:41:02;10.40;99.90
34095;DHT22;20372;47.080;15.410;2023-04-24T01:43:28;10.30;99.90
34095;DHT22;20372;47.080;15.410;2023-04-24T01:45:54;10.30;99.90
34095;DHT22;20372;47.080;15.410;2023-04-24T01:48:19;10.30;99.90
34095;DHT22;20372;47.080;15.410;2023-04-24T01:50:45;10.30;99.90
34095;DHT22;20372;47.080;15.410;2023-04-24T01:53:11;10.40;99.90
34095;DHT22;20372;47.080;15.410;2023-04-24T01:55:36;10.40;99.90
34095;DHT22;20372;47.080;15.410;2023-04-24T01:58:02;10.30;99.90
34095;DHT22;20372;47.080;15.410;2023-04-24T02:00:28;10.40;99.90
34095;DHT22;20372;47.080;15.410;2023-04-24T02:02:53;10.50;99.90
34095;DHT22;20372;47.080;15.410;2023-04-24T02:05:19;10.50;99.90
34095;DHT22;20372;47.080;15.410;2023-04-24T02:07:45;10.50;99.90
34095;DHT22;20372;47.080;15.410;2023-04-24T02:10:10;10.40;99.90
34095;DHT22;20372;47.080;15.410;2023-04-24T02:12:36;10.30;99.90
34095;DHT22;20372;47.080;15.410;2023-04-24T02:15:02;10.10;99.90
34095;DHT22;20372;47.080;15.410;2023-04-24T02:17:28;10.10;99.90
34095;DHT22;20372;47.080;15.410;2023-04-24T02:19:53;10.20;99.90
34095;DHT22;20372;47.080;15.410;2023-04-24T02:22:19;10.20;99.90
34095;DHT22;20372;47.080;15.410;2023-04-24T02:24:45;10.20;99.90
34095;DHT22;20372;47.080;15.410;2023-04-24T02:27:11;10.20;99.90
34095;DHT22;20372;47.080;15.410;2023-04-24T02:29:36;10.10;99.90
34095;DHT22;20372;47.080;15.410;2023-04-24T02:32:02;10.10;99.90
34095;DHT22;20372;47.080;15.410;2023-04-24T02:34:28;10.00;99.90
34095;DHT22;20372;47.080;15.410;2023-04-24T02:36:53;9.90;99.90
34095;DHT22;20372;47.080;15.410;2023-04-24T02:39:19;9.80;99.90
34095;DHT22;20372;47.080;15.410;2023-04-24T02:41:45;9.80;99.90
34095;DHT22;20372;47.080;15.410;2023-04-24T02:44:10;9.80;99.90
34095;DHT22;20372;47.080;15.410;2023-04-24T02:46:36;10.00;99.90
34095;DHT22;20372;47.080;15.410;2023-04-24T02:49:01;10.20;99.90
34095;DHT22;20372;47.080;15.410;2023-04-24T02:51:28;10.40;99.90
34095;DHT22;20372;47.080;15.410;2023-04-24T02:53:53;10.40;99.90
34095;DHT22;20372;47.080;15.410;2023-04-24T02:56:19;10.40;99.90
34095;DHT22;20372;47.080;15.410;2023-04-24T02:58:44;10.30;99.90
34095;DHT22;20372;47.080;15.410;2023-04-24T03:01:10;10.20;99.90
34095;DHT22;20372;47.080;15.410;2023-04-24T03:03:37;10.20;99.90
34095;DHT22;20372;47.080;15.410;2023-04-24T03:06:02;10.10;99.90
34095;DHT22;20372;47.080;15.410;2023-04-24T03:08:28;10.20;99.90
34095;DHT22;20372;47.080;15.410;2023-04-24T03:10:53;10.10;99.90
34095;DHT22;20372;47.080;15.410;2023-04-24T03:13:19;9.90;99.90
34095;DHT22;20372;47.080;15.410;2023-04-24T03:15:45;9.80;99.90
34095;DHT22;20372;47.080;15.410;2023-04-24T03:18:11;9.80;99.90
34095;DHT22;20372;47.080;15.410;2023-04-24T03:20:37;9.70;99.90
34095;DHT22;20372;47.080;15.410;2023-04-24T03:23:03;9.70;99.90
34095;DHT22;20372;47.080;15.410;2023-04-24T03:25:29;9.70;99.90
34095;DHT22;20372;47.080;15.410;2023-04-24T03:27:54;9.80;99.90
34095;DHT22;20372;47.080;15.410;2023-04-24T03:30:20;9.90;99.90
34095;DHT22;20372;47.080;15.410;2023-04-24T03:32:45;10.00;99.90
34095;DHT22;20372;47.080;15.410;2023-04-24T03:35:11;10.10;99.90
34095;DHT22;20372;47.080;15.410;2023-04-24T03:37:36;10.30;99.90
34095;DHT22;20372;47.080;15.410;2023-04-24T03:40:02;10.30;99.90
34095;DHT22;20372;47.080;15.410;2023-04-24T03:42:28;10.30;99.90
34095;DHT22;20372;47.080;15.410;2023-04-24T03:44:53;10.30;99.90
34095;DHT22;20372;47.080;15.410;2023-04-24T03:47:19;10.20;99.90
34095;DHT22;20372;47.080;15.410;2023-04-24T03:49:44;10.00;99.90
34095;DHT22;20372;47.080;15.410;2023-04-24T03:52:10;10.00;99.90
34095;DHT22;20372;47.080;15.410;2023-04-24T03:54:35;9.90;99.90
34095;DHT22;20372;47.080;15.410;2023-04-24T03:57:01;9.80;99.90
34095;DHT22;20372;47.080;15.410;2023-04-24T03:59:27;9.80;99.90
34095;DHT22;20372;47.080;15.410;2023-04-24T04:01:52;9.80;99.90
34095;DHT22;20372;47.080;15.410;2023-04-24T04:04:18;9.80;99.90
34095;DHT22;20372;47.080;15.410;2023-04-24T04:06:43;9.80;99.90
34095;DHT22;20372;47.080;15.410;2023-04-24T04:09:12;9.80;99.90
34095;DHT22;20372;47.080;15.410;2023-04-24T04:11:37;9.90;99.90
34095;DHT22;20372;47.080;15.410;2023-04-24T04:14:03;9.80;99.90
34095;DHT22;20372;47.080;15.410;2023-04-24T04:16:29;9.80;99.90
34095;DHT22;20372;47.080;15.410;2023-04-24T04:18:55;9.90;99.90
34095;DHT22;20372;47.080;15.410;2023-04-24T04:21:21;9.90;99.90
34095;DHT22;20372;47.080;15.410;2023-04-24T04:23:46;9.90;99.90
34095;DHT22;20372;47.080;15.410;2023-04-24T04:26:12;9.90;99.90
34095;DHT22;20372;47.080;15.410;2023-04-24T04:28:40;9.90;99.90
34095;DHT22;20372;47.080;15.410;2023-04-24T04:31:06;9.90;99.90
34095;DHT22;20372;47.080;15.410;2023-04-24T04:33:33;10.00;99.90
34095;DHT22;20372;47.080;15.410;2023-04-24T04:35:59;10.00;99.90
34095;DHT22;20372;47.080;15.410;2023-04-24T04:38:25;10.00;99.90
34095;DHT22;20372;47.080;15.410;2023-04-24T04:40:51;10.00;99.90
34095;DHT22;20372;47.080;15.410;2023-04-24T04:43:17;10.10;99.90
34095;DHT22;20372;47.080;15.410;2023-04-24T04:45:43;10.10;99.90
34095;DHT22;20372;47.080;15.410;2023-04-24T04:48:09;10.10;99.90
34095;DHT22;20372;47.080;15.410;2023-04-24T04:50:35;10.00;99.90
34095;DHT22;20372;47.080;15.410;2023-04-24T04:53:00;9.90;99.90
34095;DHT22;20372;47.080;15.410;2023-04-24T04:55:26;9.90;99.90
34095;DHT22;20372;47.080;15.410;2023-04-24T04:57:52;10.00;99.90
34095;DHT22;20372;47.080;15.410;2023-04-24T05:00:17;10.00;99.90
34095;DHT22;20372;47.080;15.410;2023-04-24T05:02:43;10.00;99.90
34095;DHT22;20372;47.080;15.410;2023-04-24T05:05:09;10.00;99.90
34095;DHT22;20372;47.080;15.410;2023-04-24T05:07:35;10.00;99.90
34095;DHT22;20372;47.080;15.410;2023-04-24T05:10:00;10.10;99.90
34095;DHT22;20372;47.080;15.410;2023-04-24T05:12:26;10.10;99.90
34095;DHT22;20372;47.080;15.410;2023-04-24T05:14:52;10.20;99.90
34095;DHT22;20372;47.080;15.410;2023-04-24T05:17:18;10.30;99.90
34095;DHT22;20372;47.080;15.410;2023-04-24T05:19:43;10.30;99.90
34095;DHT22;20372;47.080;15.410;2023-04-24T05:22:09;10.40;99.90
34095;DHT22;20372;47.080;15.410;2023-04-24T05:24:35;10.50;99.90
34095;DHT22;20372;47.080;15.410;2023-04-24T05:27:04;10.60;99.90
34095;DHT22;20372;47.080;15.410;2023-04-24T05:29:30;10.70;99.90
34095;DHT22;20372;47.080;15.410;2023-04-24T05:31:59;10.70;99.90
34095;DHT22;20372;47.080;15.410;2023-04-24T05:34:25;10.90;99.90
34095;DHT22;20372;47.080;15.410;2023-04-24T05:36:51;11.20;99.90
34095;DHT22;20372;47.080;15.410;2023-04-24T05:39:17;11.40;99.90
34095;DHT22;20372;47.080;15.410;2023-04-24T05:41:42;11.40;99.90
34095;DHT22;20372;47.080;15.410;2023-04-24T05:44:08;11.40;99.90
34095;DHT22;20372;47.080;15.410;2023-04-24T05:46:34;11.40;99.90
34095;DHT22;20372;47.080;15.410;2023-04-24T05:49:00;11.50;99.90
34095;DHT22;20372;47.080;15.410;2023-04-24T05:51:26;11.60;99.90
34095;DHT22;20372;47.080;15.410;2023-04-24T05:53:51;11.70;99.90
34095;DHT22;20372;47.080;15.410;2023-04-24T05:56:17;11.80;99.90
34095;DHT22;20372;47.080;15.410;2023-04-24T05:58:43;11.80;99.90
34095;DHT22;20372;47.080;15.410;2023-04-24T06:01:09;11.90;99.90
34095;DHT22;20372;47.080;15.410;2023-04-24T06:03:35;12.10;99.90
34095;DHT22;20372;47.080;15.410;2023-04-24T06:06:00;12.20;99.90
34095;DHT22;20372;47.080;15.410;2023-04-24T06:08:26;12.40;99.90
34095;DHT22;20372;47.080;15.410;2023-04-24T06:10:51;12.40;99.90
34095;DHT22;20372;47.080;15.410;2023-04-24T06:13:17;12.50;99.90
34095;DHT22;20372;47.080;15.410;2023-04-24T06:15:43;12.60;99.90
34095;DHT22;20372;47.080;15.410;2023-04-24T06:18:09;12.60;99.90
34095;DHT22;20372;47.080;15.410;2023-04-24T06:20:35;12.80;99.90
34095;DHT22;20372;47.080;15.410;2023-04-24T06:23:01;12.90;99.90
34095;DHT22;20372;47.080;15.410;2023-04-24T06:25:27;13.20;99.90
34095;DHT22;20372;47.080;15.410;2023-04-24T06:27:53;13.90;99.90
34095;DHT22;20372;47.080;15.410;2023-04-24T06:30:19;14.40;99.90
34095;DHT22;20372;47.080;15.410;2023-04-24T06:32:44;14.50;99.90
34095;DHT22;20372;47.080;15.410;2023-04-24T06:35:10;14.90;99.90
34095;DHT22;20372;47.080;15.410;2023-04-24T06:37:38;15.30;99.90
34095;DHT22;20372;47.080;15.410;2023-04-24T06:40:04;15.80;99.90
34095;DHT22;20372;47.080;15.410;2023-04-24T06:42:30;16.90;99.90
34095;DHT22;20372;47.080;15.410;2023-04-24T06:44:56;17.60;99.90
34095;DHT22;20372;47.080;15.410;2023-04-24T06:47:21;16.40;99.90
34095;DHT22;20372;47.080;15.410;2023-04-24T06:49:47;15.80;99.90
34095;DHT22;20372;47.080;15.410;2023-04-24T06:52:13;15.40;99.90
34095;DHT22;20372;47.080;15.410;2023-04-24T06:54:38;14.80;99.90
34095;DHT22;20372;47.080;15.410;2023-04-24T06:57:04;14.60;99.90
34095;DHT22;20372;47.080;15.410;2023-04-24T06:59:30;14.50;99.90
34095;DHT22;20372;47.080;15.410;2023-04-24T07:01:56;14.50;99.90
34095;DHT22;20372;47.080;15.410;2023-04-24T07:04:21;14.30;99.90
34095;DHT22;20372;47.080;15.410;2023-04-24T07:06:47;14.10;99.90
34095;DHT22;20372;47.080;15.410;2023-04-24T07:09:14;14.10;99.90
34095;DHT22;20372;47.080;15.410;2023-04-24T07:11:41;14.00;99.90
34095;DHT22;20372;47.080;15.410;2023-04-24T07:14:07;13.80;99.90
34095;DHT22;20372;47.080;15.410;2023-04-24T07:16:32;13.60;99.90
34095;DHT22;20372;47.080;15.410;2023-04-24T07:18:58;13.40;99.90
34095;DHT22;20372;47.080;15.410;2023-04-24T07:21:24;13.40;99.90
34095;DHT22;20372;47.080;15.410;2023-04-24T07:23:50;13.30;99.90
34095;DHT22;20372;47.080;15.410;2023-04-24T07:26:16;13.00;99.90
34095;DHT22;20372;47.080;15.410;2023-04-24T07:28:42;12.60;99.90
34095;DHT22;20372;47.080;15.410;2023-04-24T07:31:07;12.40;99.90
34095;DHT22;20372;47.080;15.410;2023-04-24T07:33:33;12.40;99.90
34095;DHT22;20372;47.080;15.410;2023-04-24T07:35:59;12.40;99.90
34095;DHT22;20372;47.080;15.410;2023-04-24T07:38:25;12.40;99.90
34095;DHT22;20372;47.080;15.410;2023-04-24T07:40:51;12.30;99.90
34095;DHT22;20372;47.080;15.410;2023-04-24T07:43:17;12.40;99.90
34095;DHT22;20372;47.080;15.410;2023-04-24T07:45:42;12.30;99.90
34095;DHT22;20372;47.080;15.410;2023-04-24T07:48:08;12.30;99.90
34095;DHT22;20372;47.080;15.410;2023-04-24T07:50:34;12.30;99.90
34095;DHT22;20372;47.080;15.410;2023-04-24T07:53:00;12.20;99.90
34095;DHT22;20372;47.080;15.410;2023-04-24T07:55:25;12.20;99.90
34095;DHT22;20372;47.080;15.410;2023-04-24T07:57:51;12.00;99.90
34095;DHT22;20372;47.080;15.410;2023-04-24T08:00:16;11.90;99.90
34095;DHT22;20372;47.080;15.410;2023-04-24T08:02:42;11.80;99.90
34095;DHT22;20372;47.080;15.410;2023-04-24T08:05:08;11.60;99.90
34095;DHT22;20372;47.080;15.410;2023-04-24T08:07:33;11.60;99.90
34095;DHT22;20372;47.080;15.410;2023-04-24T08:10:00;11.60;99.90
34095;DHT22;20372;47.080;15.410;2023-04-24T08:12:27;11.50;99.90
34095;DHT22;20372;47.080;15.410;2023-04-24T08:14:53;11.40;99.90
34095;DHT22;20372;47.080;15.410;2023-04-24T08:17:18;11.60;99.90
34095;DHT22;20372;47.080;15.410;2023-04-24T08:19:44;11.70;99.90
34095;DHT22;20372;47.080;15.410;2023-04-24T08:22:14;11.80;99.90
34095;DHT22;20372;47.080;15.410;2023-04-24T08:24:40;12.00;99.90
34095;DHT22;20372;47.080;15.410;2023-04-24T08:27:05;12.10;99.90
34095;DHT22;20372;47.080;15.410;2023-04-24T08:29:31;12.20;99.90
34095;DHT22;20372;47.080;15.410;2023-04-24T08:31:57;12.10;99.90
34095;DHT22;20372;47.080;15.410;2023-04-24T08:34:22;12.10;99.90
34095;DHT22;20372;47.080;15.410;2023-04-24T08:36:48;12.20;99.90
34095;DHT22;20372;47.080;15.410;2023-04-24T08:39:14;12.20;99.90
34095;DHT22;20372;47.080;15.410;2023-04-24T08:41:41;12.10;99.90
34095;DHT22;20372;47.080;15.410;2023-04-24T08:44:08;12.10;99.90
34095;DHT22;20372;47.080;15.410;2023-04-24T08:46:34;12.10;99.90
34095;DHT22;20372;47.080;15.410;2023-04-24T08:49:00;12.10;99.90
34095;DHT22;20372;47.080;15.410;2023-04-24T08:51:26;12.10;99.90
34095;DHT22;20372;47.080;15.410;2023-04-24T08:53:51;12.20;99.90
34095;DHT22;20372;47.080;15.410;2023-04-24T08:56:18;12.20;99.90
34095;DHT22;20372;47.080;15.410;2023-04-24T08:58:44;12.30;99.90
34095;DHT22;20372;47.080;15.410;2023-04-24T09:01:10;12.20;99.90
34095;DHT22;20372;47.080;15.410;2023-04-24T09:03:36;12.00;99.90
34095;DHT22;20372;47.080;15.410;2023-04-24T09:06:02;11.80;99.90
34095;DHT22;20372;47.080;15.410;2023-04-24T09:08:28;11.70;99.90
34095;DHT22;20372;47.080;15.410;2023-04-24T09:10:55;11.60;99.90
34095;DHT22;20372;47.080;15.410;2023-04-24T09:13:20;11.40;99.90
34095;DHT22;20372;47.080;15.410;2023-04-24T09:15:46;11.30;99.90
34095;DHT22;20372;47.080;15.410;2023-04-24T09:18:11;11.30;99.90
34095;DHT22;20372;47.080;15.410;2023-04-24T09:23:21;11.20;99.90
34095;DHT22;20372;47.080;15.410;2023-04-24T09:25:48;11.00;99.90
34095;DHT22;20372;47.080;15.410;2023-04-24T09:28:19;11.00;99.90
34095;DHT22;20372;47.080;15.410;2023-04-24T09:30:44;10.90;99.90
34095;DHT22;20372;47.080;15.410;2023-04-24T09:35:35;10.90;99.90
34095;DHT22;20372;47.080;15.410;2023-04-24T09:38:01;10.90;99.90
34095;DHT22;20372;47.080;15.410;2023-04-24T09:40:26;11.00;99.90
34095;DHT22;20372;47.080;15.410;2023-04-24T09:42:53;11.20;99.90
34095;DHT22;20372;47.080;15.410;2023-04-24T09:45:19;11.20;99.90
34095;DHT22;20372;47.080;15.410;2023-04-24T09:47:45;11.20;99.90
34095;DHT22;20372;47.080;15.410;2023-04-24T09:50:12;11.30;99.90
34095;DHT22;20372;47.080;15.410;2023-04-24T09:52:45;11.10;99.90
34095;DHT22;20372;47.080;15.410;2023-04-24T09:55:16;11.40;99.90
34095;DHT22;20372;47.080;15.410;2023-04-24T09:57:51;11.30;99.90
34095;DHT22;20372;47.080;15.410;2023-04-24T10:02:55;12.30;99.90
34095;DHT22;20372;47.080;15.410;2023-04-24T10:05:25;12.60;99.90
34095;DHT22;20372;47.080;15.410;2023-04-24T10:07:55;12.90;99.90
34095;DHT22;20372;47.080;15.410;2023-04-24T10:10:21;12.50;99.90
34095;DHT22;20372;47.080;15.410;2023-04-24T10:12:47;12.40;99.90
34095;DHT22;20372;47.080;15.410;2023-04-24T10:15:13;12.40;99.90
34095;DHT22;20372;47.080;15.410;2023-04-24T10:17:39;12.00;99.90
34095;DHT22;20372;47.080;15.410;2023-04-24T10:20:05;12.30;99.90
34095;DHT22;20372;47.080;15.410;2023-04-24T10:22:32;12.50;99.90
34095;DHT22;20372;47.080;15.410;2023-04-24T10:24:58;12.50;99.90
34095;DHT22;20372;47.080;15.410;2023-04-24T10:27:24;12.50;99.90
34095;DHT22;20372;47.080;15.410;2023-04-24T10:29:51;12.30;99.90
34095;DHT22;20372;47.080;15.410;2023-04-24T10:32:18;11.90;99.90
34095;DHT22;20372;47.080;15.410;2023-04-24T10:34:43;12.10;99.90
34095;DHT22;20372;47.080;15.410;2023-04-24T10:37:10;12.20;99.90
34095;DHT22;20372;47.080;15.410;2023-04-24T10:39:35;12.30;99.90
34095;DHT22;20372;47.080;15.410;2023-04-24T10:42:13;12.40;99.90
34095;DHT22;20372;47.080;15.410;2023-04-24T10:44:39;12.50;99.90
34095;DHT22;20372;47.080;15.410;2023-04-24T10:47:05;12.70;99.90
34095;DHT22;20372;47.080;15.410;2023-04-24T10:49:37;12.70;99.90
34095;DHT22;20372;47.080;15.410;2023-04-24T10:52:03;12.80;99.90
34095;DHT22;20372;47.080;15.410;2023-04-24T10:54:34;12.90;99.90
34095;DHT22;20372;47.080;15.410;2023-04-24T11:00:29;12.90;99.90
34095;DHT22;20372;47.080;15.410;2023-04-24T11:02:38;12.80;99.90
34095;DHT22;20372;47.080;15.410;2023-04-24T11:05:04;12.70;99.90
34095;DHT22;20372;47.080;15.410;2023-04-24T11:07:47;13.10;99.90
34095;DHT22;20372;47.080;15.410;2023-04-24T11:10:25;13.20;99.90
34095;DHT22;20372;47.080;15.410;2023-04-24T11:12:51;12.90;99.90
34095;DHT22;20372;47.080;15.410;2023-04-24T11:15:17;12.80;99.90
34095;DHT22;20372;47.080;15.410;2023-04-24T11:17:44;12.80;99.90
34095;DHT22;20372;47.080;15.410;2023-04-24T11:20:11;13.00;99.90
34095;DHT22;20372;47.080;15.410;2023-04-24T11:22:39;13.20;99.90
34095;DHT22;20372;47.080;15.410;2023-04-24T11:25:08;13.50;99.90
34095;DHT22;20372;47.080;15.410;2023-04-24T11:27:43;13.10;99.90
34095;DHT22;20372;47.080;15.410;2023-04-24T11:30:09;13.10;99.90
34095;DHT22;20372;47.080;15.410;2023-04-24T11:32:39;13.10;99.90
34095;DHT22;20372;47.080;15.410;2023-04-24T11:35:15;13.50;99.90
34095;DHT22;20372;47.080;15.410;2023-04-24T11:37:45;13.70;99.90
34095;DHT22;20372;47.080;15.410;2023-04-24T11:40:12;13.40;99.90
34095;DHT22;20372;47.080;15.410;2023-04-24T11:42:39;13.30;99.90
34095;DHT22;20372;47.080;15.410;2023-04-24T11:47:34;13.40;99.90
34095;DHT22;20372;47.080;15.410;2023-04-24T11:50:00;13.50;99.90
34095;DHT22;20372;47.080;15.410;2023-04-24T11:52:26;13.40;99.90
34095;DHT22;20372;47.080;15.410;2023-04-24T11:54:52;13.50;99.90
34095;DHT22;20372;47.080;15.410;2023-04-24T11:57:20;13.40;99.90
34095;DHT22;20372;47.080;15.410;2023-04-24T11:59:47;13.70;99.90
34095;DHT22;20372;47.080;15.410;2023-04-24T12:02:23;14.10;99.90
34095;DHT22;20372;47.080;15.410;2023-04-24T12:04:48;14.20;99.90
34095;DHT22;20372;47.080;15.410;2023-04-24T12:07:14;14.10;99.90
34095;DHT22;20372;47.080;15.410;2023-04-24T12:09:40;14.10;99.90
34095;DHT22;20372;47.080;15.410;2023-04-24T12:12:07;14.20;99.90
34095;DHT22;20372;47.080;15.410;2023-04-24T12:14:32;14.40;99.90
34095;DHT22;20372;47.080;15.410;2023-04-24T12:16:58;14.30;99.90
34095;DHT22;20372;47.080;15.410;2023-04-24T12:19:23;14.40;99.90
34095;DHT22;20372;47.080;15.410;2023-04-24T12:22:02;14.70;99.90
34095;DHT22;20372;47.080;15.410;2023-04-24T12:24:29;14.90;99.90
34095;DHT22;20372;47.080;15.410;2023-04-24T12:26:55;15.10;99.90
34095;DHT22;20372;47.080;15.410;2023-04-24T12:29:21;15.40;99.90
34095;DHT22;20372;47.080;15.410;2023-04-24T12:31:47;15.60;99.90
34095;DHT22;20372;47.080;15.410;2023-04-24T12:34:19;15.50;99.90
34095;DHT22;20372;47.080;15.410;2023-04-24T12:36:46;15.10;99.90
34095;DHT22;20372;47.080;15.410;2023-04-24T12:39:15;14.50;99.90
34095;DHT22;20372;47.080;15.410;2023-04-24T12:41:54;14.20;99.90
34095;DHT22;20372;47.080;15.410;2023-04-24T12:44:28;14.80;99.90
34095;DHT22;20372;47.080;15.410;2023-04-24T12:46:54;14.70;99.90
34095;DHT22;20372;47.080;15.410;2023-04-24T12:49:19;14.40;99.90
34095;DHT22;20372;47.080;15.410;2023-04-24T12:51:45;15.00;99.90
34095;DHT22;20372;47.080;15.410;2023-04-24T12:54:10;14.70;99.90
34095;DHT22;20372;47.080;15.410;2023-04-24T12:56:37;14.00;99.90
34095;DHT22;20372;47.080;15.410;2023-04-24T12:59:04;14.20;99.90
34095;DHT22;20372;47.080;15.410;2023-04-24T13:01:30;14.20;99.90
34095;DHT22;20372;47.080;15.410;2023-04-24T13:03:56;13.90;99.90
34095;DHT22;20372;47.080;15.410;2023-04-24T13:06:21;14.10;99.90
34095;DHT22;20372;47.080;15.410;2023-04-24T13:08:47;14.20;99.90
34095;DHT22;20372;47.080;15.410;2023-04-24T13:11:13;14.50;99.90
34095;DHT22;20372;47.080;15.410;2023-04-24T13:13:39;15.10;99.90
34095;DHT22;20372;47.080;15.410;2023-04-24T13:16:05;14.90;99.90
34095;DHT22;20372;47.080;15.410;2023-04-24T13:18:30;14.80;99.90
34095;DHT22;20372;47.080;15.410;2023-04-24T13:20:56;15.30;99.90
34095;DHT22;20372;47.080;15.410;2023-04-24T13:23:22;15.50;99.90
34095;DHT22;20372;47.080;15.410;2023-04-24T13:25:48;15.50;99.90
34095;DHT22;20372;47.080;15.410;2023-04-24T13:28:14;15.40;99.90
34095;DHT22;20372;47.080;15.410;2023-04-24T13:30:40;16.10;99.90
34095;DHT22;20372;47.080;15.410;2023-04-24T13:33:05;16.20;99.90
34095;DHT22;20372;47.080;15.410;2023-04-24T13:35:31;16.20;99.90
34095;DHT22;20372;47.080;15.410;2023-04-24T13:37:57;16.10;99.90
34095;DHT22;20372;47.080;15.410;2023-04-24T13:40:23;16.10;99.90
34095;DHT22;20372;47.080;15.410;2023-04-24T13:42:48;16.00;99.90
34095;DHT22;20372;47.080;15.410;2023-04-24T13:45:14;15.50;99.90
34095;DHT22;20372;47.080;15.410;2023-04-24T13:47:40;15.70;99.90
34095;DHT22;20372;47.080;15.410;2023-04-24T13:50:09;15.70;99.90
34095;DHT22;20372;47.080;15.410;2023-04-24T13:52:35;15.80;99.90
34095;DHT22;20372;47.080;15.410;2023-04-24T13:55:00;16.10;99.90
34095;DHT22;20372;47.080;15.410;2023-04-24T13:57:26;16.50;99.90
34095;DHT22;20372;47.080;15.410;2023-04-24T13:59:53;16.60;99.90
34095;DHT22;20372;47.080;15.410;2023-04-24T14:02:21;16.80;99.90
34095;DHT22;20372;47.080;15.410;2023-04-24T14:04:47;16.60;99.90
34095;DHT22;20372;47.080;15.410;2023-04-24T14:07:13;16.40;99.90
34095;DHT22;20372;47.080;15.410;2023-04-24T14:09:39;16.20;99.90
34095;DHT22;20372;47.080;15.410;2023-04-24T14:12:04;16.10;99.90
34095;DHT22;20372;47.080;15.410;2023-04-24T14:14:31;16.10;99.90
34095;DHT22;20372;47.080;15.410;2023-04-24T14:16:56;15.40;99.90
34095;DHT22;20372;47.080;15.410;2023-04-24T14:19:22;15.30;99.90
34095;DHT22;20372;47.080;15.410;2023-04-24T14:21:48;15.50;99.90
34095;DHT22;20372;47.080;15.410;2023-04-24T14:24:14;15.40;99.90
34095;DHT22;20372;47.080;15.410;2023-04-24T14:26:40;15.10;99.90
34095;DHT22;20372;47.080;15.410;2023-04-24T14:29:06;14.80;99.90
34095;DHT22;20372;47.080;15.410;2023-04-24T14:31:32;14.80;99.90
34095;DHT22;20372;47.080;15.410;2023-04-24T14:33:57;15.10;99.90
34095;DHT22;20372;47.080;15.410;2023-04-24T14:36:23;15.40;99.90
34095;DHT22;20372;47.080;15.410;2023-04-24T14:38:49;15.00;99.90
34095;DHT22;20372;47.080;15.410;2023-04-24T14:41:14;15.20;99.90
34095;DHT22;20372;47.080;15.410;2023-04-24T14:43:40;15.30;99.90
34095;DHT22;20372;47.080;15.410;2023-04-24T14:46:05;15.30;99.90
34095;DHT22;20372;47.080;15.410;2023-04-24T14:48:31;15.20;99.90
34095;DHT22;20372;47.080;15.410;2023-04-24T14:50:57;15.30;99.90
34095;DHT22;20372;47.080;15.410;2023-04-24T14:53:22;14.80;99.90
34095;DHT22;20372;47.080;15.410;2023-04-24T14:55:48;14.80;99.90
34095;DHT22;20372;47.080;15.410;2023-04-24T14:58:14;14.70;99.90
34095;DHT22;20372;47.080;15.410;2023-04-24T15:00:39;14.60;99.90
34095;DHT22;20372;47.080;15.410;2023-04-24T15:03:05;14.60;99.90
34095;DHT22;20372;47.080;15.410;2023-04-24T15:05:31;14.60;99.90
34095;DHT22;20372;47.080;15.410;2023-04-24T15:07:56;14.60;99.90
34095;DHT22;20372;47.080;15.410;2023-04-24T15:10:22;14.30;99.90
34095;DHT22;20372;47.080;15.410;2023-04-24T15:12:49;14.30;99.90
34095;DHT22;20372;47.080;15.410;2023-04-24T15:15:14;14.20;99.90
34095;DHT22;20372;47.080;15.410;2023-04-24T15:17:40;14.30;99.90
34095;DHT22;20372;47.080;15.410;2023-04-24T15:20:08;14.30;99.90
34095;DHT22;20372;47.080;15.410;2023-04-24T15:22:33;14.20;99.90
34095;DHT22;20372;47.080;15.410;2023-04-24T15:24:59;14.10;99.90